To NAV CANADA Home Page Login to a new session Search on AWWS site Feedback and Comments Disclaimer Vers la page française équivalente Tips FAQ What's new on the site To the Forecasts and Observations / NOTAM section To "File a Flight Plan" website Publications and other links Update of the User's profile FIC Telephone Numbers My Weather Data Folder Route Weather Data Regional Weather Data Local Weather Data To the Forecasts and Observations / NOTAM section
Request Generated 04/30/2017 at 05:03:04 UTC . Weather information available at that time is displayed.

METAR/TAF

HOPE/BC    (show WxCam)

METAR CYHE 300500Z AUTO 25002KT 9SM -RA OVC033 08/07 A3006 RMK
SLP182=
METAR CYHE 300400Z AUTO 25005KT 9SM -RA BKN041 OVC055 08/07 A3006 RMK
SLP182=
SPECI CYHE 300345Z AUTO 25005KT 6SM -RA BR BKN045 OVC055 08/07 A3006
RMK SLP182=
SPECI CYHE 300332Z AUTO 21004KT 170V280 5SM -RA BR FEW039 BKN045
OVC055 08/07 A3006 RMK SLP182=
METAR CYHE 300300Z AUTO 27005KT 230V290 7SM -RA FEW029 OVC038 08/07
A3007 RMK SLP185=

CYHE - No TAF is issued for this station

Your time UTC time
Weather data provided by Environment Canada and NAV CANADA